sensor_id;sensor_type;location;lat;lon;timestamp;temperature;humidity
23579;DHT22;11967;50.852;4.400;2023-05-09T00:01:10;17.50;99.90
23579;DHT22;11967;50.852;4.400;2023-05-09T00:03:36;17.60;99.90
23579;DHT22;11967;50.852;4.400;2023-05-09T00:06:03;17.50;99.90
23579;DHT22;11967;50.852;4.400;2023-05-09T00:08:28;17.60;99.90
23579;DHT22;11967;50.852;4.400;2023-05-09T00:10:54;17.50;99.90
23579;DHT22;11967;50.852;4.400;2023-05-09T00:13:20;17.50;99.90
23579;DHT22;11967;50.852;4.400;2023-05-09T00:15:45;17.60;99.90
23579;DHT22;11967;50.852;4.400;2023-05-09T00:18:12;17.50;99.90
23579;DHT22;11967;50.852;4.400;2023-05-09T00:20:39;17.50;99.90
23579;DHT22;11967;50.852;4.400;2023-05-09T00:23:06;17.50;99.90
23579;DHT22;11967;50.852;4.400;2023-05-09T00:25:32;17.50;99.90
23579;DHT22;11967;50.852;4.400;2023-05-09T00:27:57;17.50;99.90
23579;DHT22;11967;50.852;4.400;2023-05-09T00:30:23;17.40;99.90
23579;DHT22;11967;50.852;4.400;2023-05-09T00:32:49;17.50;99.90
23579;DHT22;11967;50.852;4.400;2023-05-09T00:35:20;17.50;99.90
23579;DHT22;11967;50.852;4.400;2023-05-09T00:37:48;17.50;99.90
23579;DHT22;11967;50.852;4.400;2023-05-09T00:40:15;17.50;99.90
23579;DHT22;11967;50.852;4.400;2023-05-09T00:42:41;17.50;99.90
23579;DHT22;11967;50.852;4.400;2023-05-09T00:45:07;17.50;99.90
23579;DHT22;11967;50.852;4.400;2023-05-09T00:47:36;17.50;99.90
23579;DHT22;11967;50.852;4.400;2023-05-09T00:50:02;17.60;99.90
23579;DHT22;11967;50.852;4.400;2023-05-09T00:52:29;17.50;99.90
23579;DHT22;11967;50.852;4.400;2023-05-09T00:54:56;17.50;99.90
23579;DHT22;11967;50.852;4.400;2023-05-09T00:57:22;17.60;99.90
23579;DHT22;11967;50.852;4.400;2023-05-09T00:59:48;17.60;99.90
23579;DHT22;11967;50.852;4.400;2023-05-09T01:02:16;17.60;99.90
23579;DHT22;11967;50.852;4.400;2023-05-09T01:04:44;17.50;99.90
23579;DHT22;11967;50.852;4.400;2023-05-09T01:07:36;17.60;99.90
23579;DHT22;11967;50.852;4.400;2023-05-09T01:13:14;17.50;99.90
23579;DHT22;11967;50.852;4.400;2023-05-09T01:15:49;17.50;99.90
23579;DHT22;11967;50.852;4.400;2023-05-09T01:18:46;17.50;99.90
23579;DHT22;11967;50.852;4.400;2023-05-09T01:21:25;17.50;99.90
23579;DHT22;11967;50.852;4.400;2023-05-09T01:30:07;17.50;99.90
23579;DHT22;11967;50.852;4.400;2023-05-09T01:32:35;17.50;99.90
23579;DHT22;11967;50.852;4.400;2023-05-09T01:35:05;17.50;99.90
23579;DHT22;11967;50.852;4.400;2023-05-09T01:37:34;17.50;99.90
23579;DHT22;11967;50.852;4.400;2023-05-09T01:40:13;17.40;99.90
23579;DHT22;11967;50.852;4.400;2023-05-09T01:42:57;17.50;99.90
23579;DHT22;11967;50.852;4.400;2023-05-09T01:45:25;17.50;99.90
23579;DHT22;11967;50.852;4.400;2023-05-09T01:47:52;17.40;99.90
23579;DHT22;11967;50.852;4.400;2023-05-09T01:50:19;17.40;99.90
23579;DHT22;11967;50.852;4.400;2023-05-09T01:52:48;17.40;99.90
23579;DHT22;11967;50.852;4.400;2023-05-09T01:55:16;17.50;99.90
23579;DHT22;11967;50.852;4.400;2023-05-09T01:57:46;17.50;99.90
23579;DHT22;11967;50.852;4.400;2023-05-09T02:00:15;17.50;99.90
23579;DHT22;11967;50.852;4.400;2023-05-09T02:02:48;17.50;99.90
23579;DHT22;11967;50.852;4.400;2023-05-09T02:05:17;17.50;99.90
23579;DHT22;11967;50.852;4.400;2023-05-09T02:07:45;17.50;99.90
23579;DHT22;11967;50.852;4.400;2023-05-09T02:10:14;17.50;99.90
23579;DHT22;11967;50.852;4.400;2023-05-09T02:12:41;17.40;99.90
23579;DHT22;11967;50.852;4.400;2023-05-09T02:15:10;17.50;99.90
23579;DHT22;11967;50.852;4.400;2023-05-09T02:17:39;17.40;99.90
23579;DHT22;11967;50.852;4.400;2023-05-09T02:20:07;17.40;99.90
23579;DHT22;11967;50.852;4.400;2023-05-09T02:25:07;17.50;99.90
23579;DHT22;11967;50.852;4.400;2023-05-09T02:27:34;17.40;99.90
23579;DHT22;11967;50.852;4.400;2023-05-09T02:30:03;17.40;99.90
23579;DHT22;11967;50.852;4.400;2023-05-09T02:32:36;17.40;99.90
23579;DHT22;11967;50.852;4.400;2023-05-09T02:35:04;17.40;99.90
23579;DHT22;11967;50.852;4.400;2023-05-09T02:37:31;17.50;99.90
23579;DHT22;11967;50.852;4.400;2023-05-09T02:39:58;17.40;99.90
23579;DHT22;11967;50.852;4.400;2023-05-09T02:42:24;17.40;99.90
23579;DHT22;11967;50.852;4.400;2023-05-09T02:44:56;17.40;99.90
23579;DHT22;11967;50.852;4.400;2023-05-09T02:47:24;17.40;99.90
23579;DHT22;11967;50.852;4.400;2023-05-09T02:49:51;17.30;99.90
23579;DHT22;11967;50.852;4.400;2023-05-09T02:52:17;17.40;99.90
23579;DHT22;11967;50.852;4.400;2023-05-09T02:54:43;17.30;99.90
23579;DHT22;11967;50.852;4.400;2023-05-09T02:57:08;17.40;99.90
23579;DHT22;11967;50.852;4.400;2023-05-09T02:59:35;17.30;99.90
23579;DHT22;11967;50.852;4.400;2023-05-09T03:02:01;17.30;99.90
23579;DHT22;11967;50.852;4.400;2023-05-09T03:04:27;17.30;99.90
23579;DHT22;11967;50.852;4.400;2023-05-09T03:06:52;17.30;99.90
23579;DHT22;11967;50.852;4.400;2023-05-09T03:09:18;17.30;99.90
23579;DHT22;11967;50.852;4.400;2023-05-09T03:11:44;17.40;99.90
23579;DHT22;11967;50.852;4.400;2023-05-09T03:14:10;17.40;99.90
23579;DHT22;11967;50.852;4.400;2023-05-09T03:16:40;17.40;99.90
23579;DHT22;11967;50.852;4.400;2023-05-09T03:19:13;17.40;99.90
23579;DHT22;11967;50.852;4.400;2023-05-09T03:21:39;17.40;99.90
23579;DHT22;11967;50.852;4.400;2023-05-09T03:24:12;17.40;99.90
23579;DHT22;11967;50.852;4.400;2023-05-09T03:26:41;17.40;99.90
23579;DHT22;11967;50.852;4.400;2023-05-09T03:29:10;17.40;99.90
23579;DHT22;11967;50.852;4.400;2023-05-09T03:31:36;17.40;99.90
23579;DHT22;11967;50.852;4.400;2023-05-09T03:34:01;17.30;99.90
23579;DHT22;11967;50.852;4.400;2023-05-09T03:36:27;17.30;99.90
23579;DHT22;11967;50.852;4.400;2023-05-09T03:38:52;17.30;99.90
23579;DHT22;11967;50.852;4.400;2023-05-09T03:41:18;17.30;99.90
23579;DHT22;11967;50.852;4.400;2023-05-09T03:43:44;17.30;99.90
23579;DHT22;11967;50.852;4.400;2023-05-09T03:46:10;17.40;99.90
23579;DHT22;11967;50.852;4.400;2023-05-09T03:48:35;17.40;99.90
23579;DHT22;11967;50.852;4.400;2023-05-09T03:51:01;17.50;99.90
23579;DHT22;11967;50.852;4.400;2023-05-09T03:53:27;17.50;99.90
23579;DHT22;11967;50.852;4.400;2023-05-09T03:55:53;17.50;99.90
23579;DHT22;11967;50.852;4.400;2023-05-09T03:58:19;17.50;99.90
23579;DHT22;11967;50.852;4.400;2023-05-09T04:00:45;17.40;99.90
23579;DHT22;11967;50.852;4.400;2023-05-09T04:03:10;17.40;99.90
23579;DHT22;11967;50.852;4.400;2023-05-09T04:05:36;17.40;99.90
23579;DHT22;11967;50.852;4.400;2023-05-09T04:08:03;17.50;99.90
23579;DHT22;11967;50.852;4.400;2023-05-09T04:10:32;17.50;99.90
23579;DHT22;11967;50.852;4.400;2023-05-09T04:12:57;17.50;99.90
23579;DHT22;11967;50.852;4.400;2023-05-09T04:15:23;17.60;99.90
23579;DHT22;11967;50.852;4.400;2023-05-09T04:17:49;17.60;99.90
23579;DHT22;11967;50.852;4.400;2023-05-09T04:20:15;17.70;99.90
23579;DHT22;11967;50.852;4.400;2023-05-09T04:22:40;17.80;99.90
23579;DHT22;11967;50.852;4.400;2023-05-09T04:25:06;17.80;99.90
23579;DHT22;11967;50.852;4.400;2023-05-09T04:27:37;17.80;99.90
23579;DHT22;11967;50.852;4.400;2023-05-09T04:30:02;17.70;99.90
23579;DHT22;11967;50.852;4.400;2023-05-09T04:32:28;17.70;99.90
23579;DHT22;11967;50.852;4.400;2023-05-09T04:34:54;17.70;99.90
23579;DHT22;11967;50.852;4.400;2023-05-09T04:37:20;17.70;99.90
23579;DHT22;11967;50.852;4.400;2023-05-09T04:39:45;17.60;99.90
23579;DHT22;11967;50.852;4.400;2023-05-09T04:42:11;17.60;99.90
23579;DHT22;11967;50.852;4.400;2023-05-09T04:44:37;17.60;99.90
23579;DHT22;11967;50.852;4.400;2023-05-09T04:47:02;17.60;99.90
23579;DHT22;11967;50.852;4.400;2023-05-09T04:49:28;17.60;99.90
23579;DHT22;11967;50.852;4.400;2023-05-09T04:51:54;17.50;99.90
23579;DHT22;11967;50.852;4.400;2023-05-09T04:54:19;17.50;99.90
23579;DHT22;11967;50.852;4.400;2023-05-09T04:56:45;17.50;99.90
23579;DHT22;11967;50.852;4.400;2023-05-09T04:59:11;17.50;99.90
23579;DHT22;11967;50.852;4.400;2023-05-09T05:01:37;17.60;99.90
23579;DHT22;11967;50.852;4.400;2023-05-09T05:04:02;17.60;99.90
23579;DHT22;11967;50.852;4.400;2023-05-09T05:06:28;17.50;99.90
23579;DHT22;11967;50.852;4.400;2023-05-09T05:08:53;17.60;99.90
23579;DHT22;11967;50.852;4.400;2023-05-09T05:11:19;17.60;99.90
23579;DHT22;11967;50.852;4.400;2023-05-09T05:13:46;17.50;99.90
23579;DHT22;11967;50.852;4.400;2023-05-09T05:16:11;17.60;99.90
23579;DHT22;11967;50.852;4.400;2023-05-09T05:18:37;17.40;99.90
23579;DHT22;11967;50.852;4.400;2023-05-09T05:21:03;17.40;99.90
23579;DHT22;11967;50.852;4.400;2023-05-09T05:23:29;17.30;99.90
23579;DHT22;11967;50.852;4.400;2023-05-09T05:25:55;17.30;99.90
23579;DHT22;11967;50.852;4.400;2023-05-09T05:28:22;17.30;99.90
23579;DHT22;11967;50.852;4.400;2023-05-09T05:30:51;17.30;99.90
23579;DHT22;11967;50.852;4.400;2023-05-09T05:33:16;17.20;99.90
23579;DHT22;11967;50.852;4.400;2023-05-09T05:35:43;17.20;99.90
23579;DHT22;11967;50.852;4.400;2023-05-09T05:38:09;17.20;99.90
23579;DHT22;11967;50.852;4.400;2023-05-09T05:40:38;17.20;99.90
23579;DHT22;11967;50.852;4.400;2023-05-09T05:43:06;17.20;99.90
23579;DHT22;11967;50.852;4.400;2023-05-09T05:45:31;17.20;99.90
23579;DHT22;11967;50.852;4.400;2023-05-09T05:47:57;17.20;99.90
23579;DHT22;11967;50.852;4.400;2023-05-09T05:50:24;17.20;99.90
23579;DHT22;11967;50.852;4.400;2023-05-09T05:52:49;17.20;99.90
23579;DHT22;11967;50.852;4.400;2023-05-09T05:55:15;17.20;99.90
23579;DHT22;11967;50.852;4.400;2023-05-09T05:57:45;17.20;99.90
23579;DHT22;11967;50.852;4.400;2023-05-09T06:00:12;17.20;99.90
23579;DHT22;11967;50.852;4.400;2023-05-09T06:02:42;17.30;99.90
23579;DHT22;11967;50.852;4.400;2023-05-09T06:05:12;17.40;99.90
23579;DHT22;11967;50.852;4.400;2023-05-09T06:07:38;17.40;99.90
23579;DHT22;11967;50.852;4.400;2023-05-09T06:10:09;17.40;99.90
23579;DHT22;11967;50.852;4.400;2023-05-09T06:12:37;17.40;99.90
23579;DHT22;11967;50.852;4.400;2023-05-09T06:15:09;17.40;99.90
23579;DHT22;11967;50.852;4.400;2023-05-09T06:17:35;17.40;99.90
23579;DHT22;11967;50.852;4.400;2023-05-09T06:20:02;17.40;99.90
23579;DHT22;11967;50.852;4.400;2023-05-09T06:22:31;17.40;99.90
23579;DHT22;11967;50.852;4.400;2023-05-09T06:24:57;17.40;99.90
23579;DHT22;11967;50.852;4.400;2023-05-09T06:27:26;17.40;99.90
23579;DHT22;11967;50.852;4.400;2023-05-09T06:29:53;17.40;99.90
23579;DHT22;11967;50.852;4.400;2023-05-09T06:32:19;17.40;99.90
23579;DHT22;11967;50.852;4.400;2023-05-09T06:34:44;17.40;99.90
23579;DHT22;11967;50.852;4.400;2023-05-09T06:37:10;17.40;99.90
23579;DHT22;11967;50.852;4.400;2023-05-09T06:39:39;17.40;99.90
23579;DHT22;11967;50.852;4.400;2023-05-09T06:42:05;17.40;99.90
23579;DHT22;11967;50.852;4.400;2023-05-09T06:44:31;17.40;99.90
23579;DHT22;11967;50.852;4.400;2023-05-09T06:46:57;17.40;99.90
23579;DHT22;11967;50.852;4.400;2023-05-09T06:49:23;17.40;99.90
23579;DHT22;11967;50.852;4.400;2023-05-09T06:51:49;17.40;99.90
23579;DHT22;11967;50.852;4.400;2023-05-09T06:54:15;17.40;99.90
23579;DHT22;11967;50.852;4.400;2023-05-09T06:56:41;17.50;99.90
23579;DHT22;11967;50.852;4.400;2023-05-09T06:59:08;17.50;99.90
23579;DHT22;11967;50.852;4.400;2023-05-09T07:01:38;17.40;99.90
23579;DHT22;11967;50.852;4.400;2023-05-09T07:04:04;17.50;99.90
23579;DHT22;11967;50.852;4.400;2023-05-09T07:06:30;17.50;99.90
23579;DHT22;11967;50.852;4.400;2023-05-09T07:08:56;17.50;99.90
23579;DHT22;11967;50.852;4.400;2023-05-09T07:11:21;17.50;99.90
23579;DHT22;11967;50.852;4.400;2023-05-09T07:13:47;17.50;99.90
23579;DHT22;11967;50.852;4.400;2023-05-09T07:16:13;17.50;99.90
23579;DHT22;11967;50.852;4.400;2023-05-09T07:18:39;17.50;99.90
23579;DHT22;11967;50.852;4.400;2023-05-09T07:21:04;17.50;99.90
23579;DHT22;11967;50.852;4.400;2023-05-09T07:23:30;17.40;99.90
23579;DHT22;11967;50.852;4.400;2023-05-09T07:25:57;17.40;99.90
23579;DHT22;11967;50.852;4.400;2023-05-09T07:28:26;17.40;99.90
23579;DHT22;11967;50.852;4.400;2023-05-09T07:30:53;17.40;99.90
23579;DHT22;11967;50.852;4.400;2023-05-09T07:33:20;17.30;99.90
23579;DHT22;11967;50.852;4.400;2023-05-09T07:35:46;17.40;99.90
23579;DHT22;11967;50.852;4.400;2023-05-09T07:38:11;17.40;99.90
23579;DHT22;11967;50.852;4.400;2023-05-09T07:40:37;17.50;99.90
23579;DHT22;11967;50.852;4.400;2023-05-09T07:43:03;17.50;99.90
23579;DHT22;11967;50.852;4.400;2023-05-09T07:45:29;17.50;99.90
23579;DHT22;11967;50.852;4.400;2023-05-09T07:47:55;17.50;99.90
23579;DHT22;11967;50.852;4.400;2023-05-09T07:50:20;17.60;99.90
23579;DHT22;11967;50.852;4.400;2023-05-09T07:52:47;17.50;99.90
23579;DHT22;11967;50.852;4.400;2023-05-09T07:55:16;17.50;99.90
23579;DHT22;11967;50.852;4.400;2023-05-09T07:57:45;17.40;99.90
23579;DHT22;11967;50.852;4.400;2023-05-09T08:00:12;17.40;99.90
23579;DHT22;11967;50.852;4.400;2023-05-09T08:02:39;17.40;99.90
23579;DHT22;11967;50.852;4.400;2023-05-09T08:05:07;17.40;99.90
23579;DHT22;11967;50.852;4.400;2023-05-09T08:07:32;17.40;99.90
23579;DHT22;11967;50.852;4.400;2023-05-09T08:09:58;17.30;99.90
23579;DHT22;11967;50.852;4.400;2023-05-09T08:12:24;17.30;99.90
23579;DHT22;11967;50.852;4.400;2023-05-09T08:14:49;17.30;99.90
23579;DHT22;11967;50.852;4.400;2023-05-09T08:17:16;17.30;99.90
23579;DHT22;11967;50.852;4.400;2023-05-09T08:19:41;17.20;99.90
23579;DHT22;11967;50.852;4.400;2023-05-09T08:22:07;17.10;99.90
23579;DHT22;11967;50.852;4.400;2023-05-09T08:24:33;17.20;99.90
23579;DHT22;11967;50.852;4.400;2023-05-09T08:26:58;17.30;99.90
23579;DHT22;11967;50.852;4.400;2023-05-09T08:29:24;17.30;99.90
23579;DHT22;11967;50.852;4.400;2023-05-09T08:31:50;17.30;99.90
23579;DHT22;11967;50.852;4.400;2023-05-09T08:34:16;17.20;99.90
23579;DHT22;11967;50.852;4.400;2023-05-09T08:36:41;17.20;99.90
23579;DHT22;11967;50.852;4.400;2023-05-09T08:39:10;17.20;99.90
23579;DHT22;11967;50.852;4.400;2023-05-09T08:41:36;17.30;99.90
23579;DHT22;11967;50.852;4.400;2023-05-09T08:44:03;17.30;99.90
23579;DHT22;11967;50.852;4.400;2023-05-09T08:46:42;17.30;99.90
23579;DHT22;11967;50.852;4.400;2023-05-09T08:49:08;17.30;99.90
23579;DHT22;11967;50.852;4.400;2023-05-09T08:51:35;17.20;99.90
23579;DHT22;11967;50.852;4.400;2023-05-09T08:54:02;17.20;99.90
23579;DHT22;11967;50.852;4.400;2023-05-09T08:56:29;17.20;99.90
23579;DHT22;11967;50.852;4.400;2023-05-09T08:58:55;17.20;99.90
23579;DHT22;11967;50.852;4.400;2023-05-09T09:01:21;17.20;99.90
23579;DHT22;11967;50.852;4.400;2023-05-09T09:03:49;17.20;99.90
23579;DHT22;11967;50.852;4.400;2023-05-09T09:06:16;17.20;99.90
23579;DHT22;11967;50.852;4.400;2023-05-09T09:08:43;17.30;99.90
23579;DHT22;11967;50.852;4.400;2023-05-09T09:11:12;17.30;99.90
23579;DHT22;11967;50.852;4.400;2023-05-09T09:13:40;17.30;99.90
23579;DHT22;11967;50.852;4.400;2023-05-09T09:16:10;17.40;99.90
23579;DHT22;11967;50.852;4.400;2023-05-09T09:18:38;17.30;99.90
23579;DHT22;11967;50.852;4.400;2023-05-09T09:21:09;17.30;99.90
23579;DHT22;11967;50.852;4.400;2023-05-09T09:23:38;17.30;99.90
23579;DHT22;11967;50.852;4.400;2023-05-09T09:26:05;17.30;99.90
23579;DHT22;11967;50.852;4.400;2023-05-09T09:28:32;17.30;99.90
23579;DHT22;11967;50.852;4.400;2023-05-09T09:30:58;17.30;99.90
23579;DHT22;11967;50.852;4.400;2023-05-09T09:33:25;17.30;99.90
23579;DHT22;11967;50.852;4.400;2023-05-09T09:35:54;17.30;99.90
23579;DHT22;11967;50.852;4.400;2023-05-09T09:38:21;17.20;99.90
23579;DHT22;11967;50.852;4.400;2023-05-09T09:40:58;17.20;99.90
23579;DHT22;11967;50.852;4.400;2023-05-09T09:43:28;17.20;99.90
23579;DHT22;11967;50.852;4.400;2023-05-09T09:45:54;17.10;99.90
23579;DHT22;11967;50.852;4.400;2023-05-09T09:48:25;17.10;99.90
23579;DHT22;11967;50.852;4.400;2023-05-09T09:50:54;17.10;99.90
23579;DHT22;11967;50.852;4.400;2023-05-09T09:53:21;17.00;99.90
23579;DHT22;11967;50.852;4.400;2023-05-09T09:55:51;17.10;99.90
23579;DHT22;11967;50.852;4.400;2023-05-09T09:58:19;17.10;99.90
23579;DHT22;11967;50.852;4.400;2023-05-09T10:03:40;17.20;99.90
23579;DHT22;11967;50.852;4.400;2023-05-09T10:06:15;17.20;99.90
23579;DHT22;11967;50.852;4.400;2023-05-09T10:08:43;17.10;99.90
23579;DHT22;11967;50.852;4.400;2023-05-09T10:11:11;17.10;99.90
23579;DHT22;11967;50.852;4.400;2023-05-09T10:13:37;17.10;99.90
23579;DHT22;11967;50.852;4.400;2023-05-09T10:16:04;17.20;99.90
23579;DHT22;11967;50.852;4.400;2023-05-09T10:18:30;17.10;99.90
23579;DHT22;11967;50.852;4.400;2023-05-09T10:20:58;17.10;99.90
23579;DHT22;11967;50.852;4.400;2023-05-09T10:23:35;17.10;99.90
23579;DHT22;11967;50.852;4.400;2023-05-09T10:26:17;17.20;99.90
23579;DHT22;11967;50.852;4.400;2023-05-09T10:28:45;17.20;99.90
23579;DHT22;11967;50.852;4.400;2023-05-09T10:33:49;17.20;99.90
23579;DHT22;11967;50.852;4.400;2023-05-09T10:36:20;17.10;99.90
23579;DHT22;11967;50.852;4.400;2023-05-09T10:38:47;17.10;99.90
23579;DHT22;11967;50.852;4.400;2023-05-09T10:41:15;17.10;99.90
23579;DHT22;11967;50.852;4.400;2023-05-09T10:43:41;17.10;99.90
23579;DHT22;11967;50.852;4.400;2023-05-09T10:46:08;17.10;99.90
23579;DHT22;11967;50.852;4.400;2023-05-09T10:48:35;17.10;99.90
23579;DHT22;11967;50.852;4.400;2023-05-09T10:51:01;17.10;99.90
23579;DHT22;11967;50.852;4.400;2023-05-09T10:53:45;17.20;99.90
23579;DHT22;11967;50.852;4.400;2023-05-09T10:56:24;17.20;99.90
23579;DHT22;11967;50.852;4.400;2023-05-09T10:58:51;17.10;99.90
23579;DHT22;11967;50.852;4.400;2023-05-09T11:01:35;17.10;99.90
23579;DHT22;11967;50.852;4.400;2023-05-09T11:04:11;17.20;99.90
23579;DHT22;11967;50.852;4.400;2023-05-09T11:06:48;17.20;99.90
23579;DHT22;11967;50.852;4.400;2023-05-09T11:09:33;17.10;99.90
23579;DHT22;11967;50.852;4.400;2023-05-09T11:12:07;17.00;99.90
23579;DHT22;11967;50.852;4.400;2023-05-09T11:14:43;17.00;99.90
23579;DHT22;11967;50.852;4.400;2023-05-09T11:27:22;17.00;99.90
23579;DHT22;11967;50.852;4.400;2023-05-09T11:29:56;17.00;99.90
23579;DHT22;11967;50.852;4.400;2023-05-09T11:32:39;17.00;99.90
23579;DHT22;11967;50.852;4.400;2023-05-09T11:35:14;17.00;99.90
23579;DHT22;11967;50.852;4.400;2023-05-09T11:37:57;16.90;99.90
23579;DHT22;11967;50.852;4.400;2023-05-09T11:40:25;16.90;99.90
23579;DHT22;11967;50.852;4.400;2023-05-09T11:42:52;16.90;99.90
23579;DHT22;11967;50.852;4.400;2023-05-09T11:45:19;16.90;99.90
23579;DHT22;11967;50.852;4.400;2023-05-09T11:47:46;16.80;99.90
23579;DHT22;11967;50.852;4.400;2023-05-09T11:50:13;16.80;99.90
23579;DHT22;11967;50.852;4.400;2023-05-09T11:52:40;16.70;99.90
23579;DHT22;11967;50.852;4.400;2023-05-09T11:55:08;16.70;99.90
23579;DHT22;11967;50.852;4.400;2023-05-09T11:57:35;16.70;99.90
23579;DHT22;11967;50.852;4.400;2023-05-09T12:00:04;16.80;99.90
23579;DHT22;11967;50.852;4.400;2023-05-09T12:02:30;16.90;99.90
23579;DHT22;11967;50.852;4.400;2023-05-09T12:05:07;17.00;99.90
23579;DHT22;11967;50.852;4.400;2023-05-09T12:07:35;17.10;99.90
23579;DHT22;11967;50.852;4.400;2023-05-09T12:10:01;17.10;99.90
23579;DHT22;11967;50.852;4.400;2023-05-09T12:12:28;16.90;99.90
23579;DHT22;11967;50.852;4.400;2023-05-09T12:15:03;16.80;99.90
23579;DHT22;11967;50.852;4.400;2023-05-09T12:17:29;16.80;99.90
23579;DHT22;11967;50.852;4.400;2023-05-09T12:19:58;16.80;99.90
23579;DHT22;11967;50.852;4.400;2023-05-09T12:22:24;16.80;99.90
23579;DHT22;11967;50.852;4.400;2023-05-09T12:24:50;16.70;99.90
23579;DHT22;11967;50.852;4.400;2023-05-09T12:27:15;16.70;99.90
23579;DHT22;11967;50.852;4.400;2023-05-09T12:29:43;16.60;99.90
23579;DHT22;11967;50.852;4.400;2023-05-09T12:32:11;16.70;99.90
23579;DHT22;11967;50.852;4.400;2023-05-09T12:34:38;16.70;99.90
23579;DHT22;11967;50.852;4.400;2023-05-09T12:37:17;16.70;99.90
23579;DHT22;11967;50.852;4.400;2023-05-09T12:40:07;16.70;99.90
23579;DHT22;11967;50.852;4.400;2023-05-09T12:42:35;16.70;99.90
23579;DHT22;11967;50.852;4.400;2023-05-09T12:45:02;16.60;99.90
23579;DHT22;11967;50.852;4.400;2023-05-09T12:47:31;16.50;99.90
23579;DHT22;11967;50.852;4.400;2023-05-09T12:50:01;16.40;99.90
23579;DHT22;11967;50.852;4.400;2023-05-09T12:52:38;16.30;99.90
23579;DHT22;11967;50.852;4.400;2023-05-09T12:55:08;16.40;99.90
23579;DHT22;11967;50.852;4.400;2023-05-09T12:57:36;16.40;99.90
23579;DHT22;11967;50.852;4.400;2023-05-09T13:00:03;16.50;99.90
23579;DHT22;11967;50.852;4.400;2023-05-09T13:02:40;16.50;99.90
23579;DHT22;11967;50.852;4.400;2023-05-09T13:05:10;16.40;99.90
23579;DHT22;11967;50.852;4.400;2023-05-09T13:07:40;16.40;99.90
23579;DHT22;11967;50.852;4.400;2023-05-09T13:10:13;16.40;99.90
23579;DHT22;11967;50.852;4.400;2023-05-09T13:12:40;16.40;99.90
23579;DHT22;11967;50.852;4.400;2023-05-09T13:15:11;16.40;99.90
23579;DHT22;11967;50.852;4.400;2023-05-09T13:17:37;16.30;99.90
23579;DHT22;11967;50.852;4.400;2023-05-09T13:20:03;16.30;99.90
23579;DHT22;11967;50.852;4.400;2023-05-09T13:22:31;16.20;99.90
23579;DHT22;11967;50.852;4.400;2023-05-09T13:24:57;16.30;99.90
23579;DHT22;11967;50.852;4.400;2023-05-09T13:27:23;16.20;99.90
23579;DHT22;11967;50.852;4.400;2023-05-09T13:29:49;16.20;99.90
23579;DHT22;11967;50.852;4.400;2023-05-09T13:32:14;16.20;99.90
23579;DHT22;11967;50.852;4.400;2023-05-09T13:34:40;16.20;99.90
23579;DHT22;11967;50.852;4.400;2023-05-09T13:37:06;16.20;99.90
23579;DHT22;11967;50.852;4.400;2023-05-09T13:39:33;16.30;99.90
23579;DHT22;11967;50.852;4.400;2023-05-09T13:41:59;16.30;99.90
23579;DHT22;11967;50.852;4.400;2023-05-09T13:44:26;16.30;99.90
23579;DHT22;11967;50.852;4.400;2023-05-09T13:46:53;16.30;99.90
23579;DHT22;11967;50.852;4.400;2023-05-09T13:49:19;16.40;99.90
23579;DHT22;11967;50.852;4.400;2023-05-09T13:51:45;16.30;99.90
23579;DHT22;11967;50.852;4.400;2023-05-09T13:54:10;16.20;99.90
23579;DHT22;11967;50.852;4.400;2023-05-09T13:56:42;16.30;99.90
23579;DHT22;11967;50.852;4.400;2023-05-09T13:59:08;16.20;99.90
23579;DHT22;11967;50.852;4.400;2023-05-09T14:01:34;16.20;99.90
23579;DHT22;11967;50.852;4.400;2023-05-09T14:04:00;16.20;99.90
23579;DHT22;11967;50.852;4.400;2023-05-09T14:06:27;16.20;99.90
23579;DHT22;11967;50.852;4.400;2023-05-09T14:08:57;16.10;99.90
23579;DHT22;11967;50.852;4.400;2023-05-09T14:11:23;16.20;99.90
23579;DHT22;11967;50.852;4.400;2023-05-09T14:13:50;16.20;99.90
23579;DHT22;11967;50.852;4.400;2023-05-09T14:16:17;16.20;99.90
23579;DHT22;11967;50.852;4.400;2023-05-09T14:18:43;16.20;99.90
23579;DHT22;11967;50.852;4.400;2023-05-09T14:21:09;16.20;99.90
23579;DHT22;11967;50.852;4.400;2023-05-09T14:23:35;16.20;99.90
23579;DHT22;11967;50.852;4.400;2023-05-09T14:26:01;16.30;99.90
23579;DHT22;11967;50.852;4.400;2023-05-09T14:28:26;16.30;99.90
23579;DHT22;11967;50.852;4.400;2023-05-09T14:30:52;16.20;99.90
23579;DHT22;11967;50.852;4.400;2023-05-09T14:33:18;16.10;99.90
23579;DHT22;11967;50.852;4.400;2023-05-09T14:35:44;16.20;99.90
23579;DHT22;11967;50.852;4.400;2023-05-09T14:38:10;16.20;99.90
23579;DHT22;11967;50.852;4.400;2023-05-09T14:40:37;16.10;99.90
23579;DHT22;11967;50.852;4.400;2023-05-09T14:43:03;16.10;99.90
23579;DHT22;11967;50.852;4.400;2023-05-09T14:45:29;16.10;99.90
23579;DHT22;11967;50.852;4.400;2023-05-09T14:47:56;16.10;99.90
23579;DHT22;11967;50.852;4.400;2023-05-09T14:50:22;16.10;99.90
23579;DHT22;11967;50.852;4.400;2023-05-09T14:52:48;16.10;99.90
23579;DHT22;11967;50.852;4.400;2023-05-09T14:55:18;16.30;99.90
23579;DHT22;11967;50.852;4.400;2023-05-09T14:57:44;16.10;99.90
23579;DHT22;11967;50.852;4.400;2023-05-09T15:00:11;16.10;99.90
23579;DHT22;11967;50.852;4.400;2023-05-09T15:02:38;16.10;99.90
23579;DHT22;11967;50.852;4.400;2023-05-09T15:05:05;16.10;99.90
23579;DHT22;11967;50.852;4.400;2023-05-09T15:07:31;16.10;99.90
23579;DHT22;11967;50.852;4.400;2023-05-09T15:09:57;16.10;99.90
23579;DHT22;11967;50.852;4.400;2023-05-09T15:12:22;16.10;99.90
23579;DHT22;11967;50.852;4.400;2023-05-09T15:14:48;16.20;99.90
23579;DHT22;11967;50.852;4.400;2023-05-09T15:17:18;16.20;99.90
23579;DHT22;11967;50.852;4.400;2023-05-09T15:19:44;16.30;99.90
23579;DHT22;11967;50.852;4.400;2023-05-09T15:22:10;16.30;99.90
23579;DHT22;11967;50.852;4.400;2023-05-09T15:24:36;16.30;99.90
23579;DHT22;11967;50.852;4.400;2023-05-09T15:27:02;16.40;99.90
23579;DHT22;11967;50.852;4.400;2023-05-09T15:29:28;16.30;99.90
23579;DHT22;11967;50.852;4.400;2023-05-09T15:31:54;16.40;99.90
23579;DHT22;11967;50.852;4.400;2023-05-09T15:34:20;16.40;99.90
23579;DHT22;11967;50.852;4.400;2023-05-09T15:36:47;16.30;99.90
23579;DHT22;11967;50.852;4.400;2023-05-09T15:39:13;16.30;99.90
23579;DHT22;11967;50.852;4.400;2023-05-09T15:41:39;16.30;99.90
23579;DHT22;11967;50.852;4.400;2023-05-09T15:44:04;16.30;99.90
23579;DHT22;11967;50.852;4.400;2023-05-09T15:46:32;16.30;99.90
23579;DHT22;11967;50.852;4.400;2023-05-09T15:48:58;16.30;99.90
23579;DHT22;11967;50.852;4.400;2023-05-09T15:51:23;16.30;99.90
23579;DHT22;11967;50.852;4.400;2023-05-09T15:53:49;16.40;99.90
23579;DHT22;11967;50.852;4.400;2023-05-09T15:56:15;16.30;99.90
23579;DHT22;11967;50.852;4.400;2023-05-09T15:58:41;16.30;99.90
23579;DHT22;11967;50.852;4.400;2023-05-09T16:01:06;16.20;99.90